sensor_id;sensor_type;location;lat;lon;timestamp;temperature;humidity
15969;DHT22;8085;53.472;9.794;2023-01-30T00:00:50;3.50;99.90
15969;DHT22;8085;53.472;9.794;2023-01-30T00:03:18;3.50;99.90
15969;DHT22;8085;53.472;9.794;2023-01-30T00:05:45;3.60;99.90
15969;DHT22;8085;53.472;9.794;2023-01-30T00:08:12;3.60;99.90
15969;DHT22;8085;53.472;9.794;2023-01-30T00:10:40;3.60;99.90
15969;DHT22;8085;53.472;9.794;2023-01-30T00:13:07;3.70;99.90
15969;DHT22;8085;53.472;9.794;2023-01-30T00:15:34;3.70;99.90
15969;DHT22;8085;53.472;9.794;2023-01-30T00:18:00;3.70;99.90
15969;DHT22;8085;53.472;9.794;2023-01-30T00:20:27;3.70;99.90
15969;DHT22;8085;53.472;9.794;2023-01-30T00:22:54;3.70;99.90
15969;DHT22;8085;53.472;9.794;2023-01-30T00:25:23;3.70;99.90
15969;DHT22;8085;53.472;9.794;2023-01-30T00:27:51;3.80;99.90
15969;DHT22;8085;53.472;9.794;2023-01-30T00:30:18;3.90;99.90
15969;DHT22;8085;53.472;9.794;2023-01-30T00:32:44;3.80;99.90
15969;DHT22;8085;53.472;9.794;2023-01-30T00:35:11;3.90;99.90
15969;DHT22;8085;53.472;9.794;2023-01-30T00:37:38;3.90;99.90
15969;DHT22;8085;53.472;9.794;2023-01-30T00:40:06;3.90;99.90
15969;DHT22;8085;53.472;9.794;2023-01-30T00:42:33;3.90;99.90
15969;DHT22;8085;53.472;9.794;2023-01-30T00:45:18;3.90;99.90
15969;DHT22;8085;53.472;9.794;2023-01-30T00:48:03;3.90;99.90
15969;DHT22;8085;53.472;9.794;2023-01-30T00:50:30;3.90;99.90
15969;DHT22;8085;53.472;9.794;2023-01-30T00:53:08;4.00;99.90
15969;DHT22;8085;53.472;9.794;2023-01-30T00:55:35;4.00;99.90
15969;DHT22;8085;53.472;9.794;2023-01-30T00:58:02;4.00;99.90
15969;DHT22;8085;53.472;9.794;2023-01-30T01:00:30;4.00;99.90
15969;DHT22;8085;53.472;9.794;2023-01-30T01:02:57;4.00;99.90
15969;DHT22;8085;53.472;9.794;2023-01-30T01:05:24;4.10;99.90
15969;DHT22;8085;53.472;9.794;2023-01-30T01:07:51;4.10;99.90
15969;DHT22;8085;53.472;9.794;2023-01-30T01:10:18;4.10;99.90
15969;DHT22;8085;53.472;9.794;2023-01-30T01:12:45;4.10;99.90
15969;DHT22;8085;53.472;9.794;2023-01-30T01:15:12;4.20;99.90
15969;DHT22;8085;53.472;9.794;2023-01-30T01:17:41;4.20;99.90
15969;DHT22;8085;53.472;9.794;2023-01-30T01:20:09;4.20;99.90
15969;DHT22;8085;53.472;9.794;2023-01-30T01:22:36;4.20;99.90
15969;DHT22;8085;53.472;9.794;2023-01-30T01:25:04;4.30;99.90
15969;DHT22;8085;53.472;9.794;2023-01-30T01:27:31;4.30;99.90
15969;DHT22;8085;53.472;9.794;2023-01-30T01:29:57;4.40;99.90
15969;DHT22;8085;53.472;9.794;2023-01-30T01:32:25;4.40;99.90
15969;DHT22;8085;53.472;9.794;2023-01-30T01:34:53;4.50;99.90
15969;DHT22;8085;53.472;9.794;2023-01-30T01:37:20;4.40;99.90
15969;DHT22;8085;53.472;9.794;2023-01-30T01:39:47;4.40;99.90
15969;DHT22;8085;53.472;9.794;2023-01-30T01:42:33;4.40;99.90
15969;DHT22;8085;53.472;9.794;2023-01-30T01:45:12;4.40;99.90
15969;DHT22;8085;53.472;9.794;2023-01-30T01:47:41;4.50;99.90
15969;DHT22;8085;53.472;9.794;2023-01-30T01:50:12;4.50;99.90
15969;DHT22;8085;53.472;9.794;2023-01-30T01:52:41;4.50;99.90
15969;DHT22;8085;53.472;9.794;2023-01-30T01:55:09;4.50;99.90
15969;DHT22;8085;53.472;9.794;2023-01-30T01:57:38;4.50;99.90
15969;DHT22;8085;53.472;9.794;2023-01-30T02:00:10;4.50;99.90
15969;DHT22;8085;53.472;9.794;2023-01-30T02:02:37;4.40;99.90
15969;DHT22;8085;53.472;9.794;2023-01-30T02:05:06;4.40;99.90
15969;DHT22;8085;53.472;9.794;2023-01-30T02:07:39;4.40;99.90
15969;DHT22;8085;53.472;9.794;2023-01-30T02:10:10;4.40;99.90
15969;DHT22;8085;53.472;9.794;2023-01-30T02:12:39;4.40;99.90
15969;DHT22;8085;53.472;9.794;2023-01-30T02:15:07;4.40;99.90
15969;DHT22;8085;53.472;9.794;2023-01-30T02:17:34;4.40;99.90
15969;DHT22;8085;53.472;9.794;2023-01-30T02:20:04;4.50;99.90
15969;DHT22;8085;53.472;9.794;2023-01-30T02:23:01;4.50;99.90
15969;DHT22;8085;53.472;9.794;2023-01-30T02:26:14;4.50;99.90
15969;DHT22;8085;53.472;9.794;2023-01-30T02:29:17;4.60;99.90
15969;DHT22;8085;53.472;9.794;2023-01-30T02:31:54;4.60;99.90
15969;DHT22;8085;53.472;9.794;2023-01-30T02:34:37;4.80;99.90
15969;DHT22;8085;53.472;9.794;2023-01-30T02:37:15;4.70;99.90
15969;DHT22;8085;53.472;9.794;2023-01-30T02:39:51;4.70;99.90
15969;DHT22;8085;53.472;9.794;2023-01-30T02:42:26;4.70;99.90
15969;DHT22;8085;53.472;9.794;2023-01-30T02:45:02;4.80;99.90
15969;DHT22;8085;53.472;9.794;2023-01-30T02:47:38;4.80;99.90
15969;DHT22;8085;53.472;9.794;2023-01-30T02:50:11;4.90;99.90
15969;DHT22;8085;53.472;9.794;2023-01-30T02:52:39;5.00;99.90
15969;DHT22;8085;53.472;9.794;2023-01-30T02:55:08;5.10;99.90
15969;DHT22;8085;53.472;9.794;2023-01-30T02:57:36;5.10;99.90
15969;DHT22;8085;53.472;9.794;2023-01-30T03:00:04;5.10;99.90
15969;DHT22;8085;53.472;9.794;2023-01-30T03:03:06;5.20;99.90
15969;DHT22;8085;53.472;9.794;2023-01-30T03:05:50;5.20;99.90
15969;DHT22;8085;53.472;9.794;2023-01-30T03:08:27;5.20;99.90
15969;DHT22;8085;53.472;9.794;2023-01-30T03:10:59;5.20;99.90
15969;DHT22;8085;53.472;9.794;2023-01-30T03:13:37;5.20;99.90
15969;DHT22;8085;53.472;9.794;2023-01-30T03:16:10;5.20;99.90
15969;DHT22;8085;53.472;9.794;2023-01-30T03:18:41;5.20;99.90
15969;DHT22;8085;53.472;9.794;2023-01-30T03:21:08;5.20;99.90
15969;DHT22;8085;53.472;9.794;2023-01-30T03:23:35;5.30;99.90
15969;DHT22;8085;53.472;9.794;2023-01-30T03:26:03;5.30;99.90
15969;DHT22;8085;53.472;9.794;2023-01-30T03:28:31;5.20;99.90
15969;DHT22;8085;53.472;9.794;2023-01-30T03:30:58;5.20;99.90
15969;DHT22;8085;53.472;9.794;2023-01-30T03:33:25;5.20;99.90
15969;DHT22;8085;53.472;9.794;2023-01-30T03:35:53;5.20;99.90
15969;DHT22;8085;53.472;9.794;2023-01-30T03:38:20;5.20;99.90
15969;DHT22;8085;53.472;9.794;2023-01-30T03:40:47;5.30;99.90
15969;DHT22;8085;53.472;9.794;2023-01-30T03:43:13;5.20;99.90
15969;DHT22;8085;53.472;9.794;2023-01-30T03:45:40;5.30;99.90
15969;DHT22;8085;53.472;9.794;2023-01-30T03:48:07;5.30;99.90
15969;DHT22;8085;53.472;9.794;2023-01-30T03:50:34;5.40;99.90
15969;DHT22;8085;53.472;9.794;2023-01-30T03:53:02;5.50;99.90
15969;DHT22;8085;53.472;9.794;2023-01-30T03:55:29;5.50;99.90
15969;DHT22;8085;53.472;9.794;2023-01-30T03:57:56;5.60;99.90
15969;DHT22;8085;53.472;9.794;2023-01-30T04:00:23;5.60;99.90
15969;DHT22;8085;53.472;9.794;2023-01-30T04:02:50;5.60;99.90
15969;DHT22;8085;53.472;9.794;2023-01-30T04:05:18;5.70;99.90
15969;DHT22;8085;53.472;9.794;2023-01-30T04:07:45;5.70;99.90
15969;DHT22;8085;53.472;9.794;2023-01-30T04:10:13;5.70;99.90
15969;DHT22;8085;53.472;9.794;2023-01-30T04:12:40;5.70;99.90
15969;DHT22;8085;53.472;9.794;2023-01-30T04:15:08;5.70;99.90
15969;DHT22;8085;53.472;9.794;2023-01-30T04:17:35;5.70;99.90
15969;DHT22;8085;53.472;9.794;2023-01-30T04:20:03;5.70;99.90
15969;DHT22;8085;53.472;9.794;2023-01-30T04:22:30;5.70;99.90
15969;DHT22;8085;53.472;9.794;2023-01-30T04:24:57;5.70;99.90
15969;DHT22;8085;53.472;9.794;2023-01-30T04:27:25;5.70;99.90
15969;DHT22;8085;53.472;9.794;2023-01-30T04:29:52;5.70;99.90
15969;DHT22;8085;53.472;9.794;2023-01-30T04:32:18;5.70;99.90
15969;DHT22;8085;53.472;9.794;2023-01-30T04:34:45;5.70;99.90
15969;DHT22;8085;53.472;9.794;2023-01-30T04:37:12;5.70;99.90
15969;DHT22;8085;53.472;9.794;2023-01-30T04:39:39;5.70;99.90
15969;DHT22;8085;53.472;9.794;2023-01-30T04:42:06;5.70;99.90
15969;DHT22;8085;53.472;9.794;2023-01-30T04:44:34;5.70;99.90
15969;DHT22;8085;53.472;9.794;2023-01-30T04:47:00;5.70;99.90
15969;DHT22;8085;53.472;9.794;2023-01-30T04:49:27;5.80;99.90
15969;DHT22;8085;53.472;9.794;2023-01-30T04:51:54;5.70;99.90
15969;DHT22;8085;53.472;9.794;2023-01-30T04:54:21;5.80;99.90
15969;DHT22;8085;53.472;9.794;2023-01-30T04:56:48;5.70;99.90
15969;DHT22;8085;53.472;9.794;2023-01-30T04:59:14;5.70;99.90
15969;DHT22;8085;53.472;9.794;2023-01-30T05:01:43;5.60;99.90
15969;DHT22;8085;53.472;9.794;2023-01-30T05:04:09;5.70;99.90
15969;DHT22;8085;53.472;9.794;2023-01-30T05:06:36;5.60;99.90
15969;DHT22;8085;53.472;9.794;2023-01-30T05:09:03;5.70;99.90
15969;DHT22;8085;53.472;9.794;2023-01-30T05:11:30;5.60;99.90
15969;DHT22;8085;53.472;9.794;2023-01-30T05:13:58;5.70;99.90
15969;DHT22;8085;53.472;9.794;2023-01-30T05:16:25;5.70;99.90
15969;DHT22;8085;53.472;9.794;2023-01-30T05:18:53;5.70;99.90
15969;DHT22;8085;53.472;9.794;2023-01-30T05:21:22;5.80;99.90
15969;DHT22;8085;53.472;9.794;2023-01-30T05:23:50;5.70;99.90
15969;DHT22;8085;53.472;9.794;2023-01-30T05:26:17;5.70;99.90
15969;DHT22;8085;53.472;9.794;2023-01-30T05:28:49;5.60;99.90
15969;DHT22;8085;53.472;9.794;2023-01-30T05:31:16;5.60;99.90
15969;DHT22;8085;53.472;9.794;2023-01-30T05:33:45;5.50;99.90
15969;DHT22;8085;53.472;9.794;2023-01-30T05:36:15;5.40;99.90
15969;DHT22;8085;53.472;9.794;2023-01-30T05:38:43;5.40;99.90
15969;DHT22;8085;53.472;9.794;2023-01-30T05:41:11;5.40;99.90
15969;DHT22;8085;53.472;9.794;2023-01-30T05:43:38;5.30;99.90
15969;DHT22;8085;53.472;9.794;2023-01-30T05:46:06;5.30;99.90
15969;DHT22;8085;53.472;9.794;2023-01-30T05:48:33;5.20;99.90
15969;DHT22;8085;53.472;9.794;2023-01-30T05:51:00;5.20;99.90
15969;DHT22;8085;53.472;9.794;2023-01-30T05:53:30;5.20;99.90
15969;DHT22;8085;53.472;9.794;2023-01-30T05:56:00;5.10;99.90
15969;DHT22;8085;53.472;9.794;2023-01-30T05:58:27;5.10;99.90
15969;DHT22;8085;53.472;9.794;2023-01-30T06:00:59;5.00;99.90
15969;DHT22;8085;53.472;9.794;2023-01-30T06:03:26;5.00;99.90
15969;DHT22;8085;53.472;9.794;2023-01-30T06:05:53;5.00;99.90
15969;DHT22;8085;53.472;9.794;2023-01-30T06:08:20;4.90;99.90
15969;DHT22;8085;53.472;9.794;2023-01-30T06:10:48;4.90;99.90
15969;DHT22;8085;53.472;9.794;2023-01-30T06:13:15;4.90;99.90
15969;DHT22;8085;53.472;9.794;2023-01-30T06:15:42;5.00;99.90
15969;DHT22;8085;53.472;9.794;2023-01-30T06:18:08;5.00;99.90
15969;DHT22;8085;53.472;9.794;2023-01-30T06:20:35;5.00;99.90
15969;DHT22;8085;53.472;9.794;2023-01-30T06:23:02;4.90;99.90
15969;DHT22;8085;53.472;9.794;2023-01-30T06:25:29;4.90;99.90
15969;DHT22;8085;53.472;9.794;2023-01-30T06:27:57;4.80;99.90
15969;DHT22;8085;53.472;9.794;2023-01-30T06:30:24;4.80;99.90
15969;DHT22;8085;53.472;9.794;2023-01-30T06:32:50;4.80;99.90
15969;DHT22;8085;53.472;9.794;2023-01-30T06:35:17;4.90;99.90
15969;DHT22;8085;53.472;9.794;2023-01-30T06:37:45;4.90;99.90
15969;DHT22;8085;53.472;9.794;2023-01-30T06:40:12;4.90;99.90
15969;DHT22;8085;53.472;9.794;2023-01-30T06:42:46;4.90;99.90
15969;DHT22;8085;53.472;9.794;2023-01-30T06:45:18;4.90;99.90
15969;DHT22;8085;53.472;9.794;2023-01-30T06:47:46;4.90;99.90
15969;DHT22;8085;53.472;9.794;2023-01-30T06:50:14;4.80;99.90
15969;DHT22;8085;53.472;9.794;2023-01-30T06:52:42;4.80;99.90
15969;DHT22;8085;53.472;9.794;2023-01-30T06:55:10;4.70;99.90
15969;DHT22;8085;53.472;9.794;2023-01-30T06:57:37;4.70;99.90
15969;DHT22;8085;53.472;9.794;2023-01-30T07:00:06;4.80;99.90
15969;DHT22;8085;53.472;9.794;2023-01-30T07:02:35;4.80;99.90
15969;DHT22;8085;53.472;9.794;2023-01-30T07:05:02;4.80;99.90
15969;DHT22;8085;53.472;9.794;2023-01-30T07:07:30;4.90;99.90
15969;DHT22;8085;53.472;9.794;2023-01-30T07:09:58;4.90;99.90
15969;DHT22;8085;53.472;9.794;2023-01-30T07:12:25;4.80;99.90
15969;DHT22;8085;53.472;9.794;2023-01-30T07:14:52;4.90;99.90
15969;DHT22;8085;53.472;9.794;2023-01-30T07:17:19;4.90;99.90
15969;DHT22;8085;53.472;9.794;2023-01-30T07:19:48;4.90;99.90
15969;DHT22;8085;53.472;9.794;2023-01-30T07:22:15;4.80;99.90
15969;DHT22;8085;53.472;9.794;2023-01-30T07:24:42;4.90;99.90
15969;DHT22;8085;53.472;9.794;2023-01-30T07:27:09;4.90;99.90
15969;DHT22;8085;53.472;9.794;2023-01-30T07:29:37;5.00;99.90
15969;DHT22;8085;53.472;9.794;2023-01-30T07:32:05;5.00;99.90
15969;DHT22;8085;53.472;9.794;2023-01-30T07:34:32;5.00;99.90
15969;DHT22;8085;53.472;9.794;2023-01-30T07:37:01;4.90;99.90
15969;DHT22;8085;53.472;9.794;2023-01-30T07:39:27;5.00;99.90
15969;DHT22;8085;53.472;9.794;2023-01-30T07:41:54;5.00;99.90
15969;DHT22;8085;53.472;9.794;2023-01-30T07:44:21;5.00;99.90
15969;DHT22;8085;53.472;9.794;2023-01-30T07:46:48;5.00;99.90
15969;DHT22;8085;53.472;9.794;2023-01-30T07:49:15;5.00;99.90
15969;DHT22;8085;53.472;9.794;2023-01-30T07:51:41;5.10;99.90
15969;DHT22;8085;53.472;9.794;2023-01-30T07:54:10;5.10;99.90
15969;DHT22;8085;53.472;9.794;2023-01-30T07:56:37;5.20;99.90
15969;DHT22;8085;53.472;9.794;2023-01-30T07:59:04;5.20;99.90
15969;DHT22;8085;53.472;9.794;2023-01-30T08:01:31;5.10;99.90
15969;DHT22;8085;53.472;9.794;2023-01-30T08:03:58;5.10;99.90
15969;DHT22;8085;53.472;9.794;2023-01-30T08:06:25;5.20;99.90
15969;DHT22;8085;53.472;9.794;2023-01-30T08:08:52;5.20;99.90
15969;DHT22;8085;53.472;9.794;2023-01-30T08:11:20;5.40;99.90
15969;DHT22;8085;53.472;9.794;2023-01-30T08:13:46;5.20;99.90
15969;DHT22;8085;53.472;9.794;2023-01-30T08:16:13;5.10;99.90
15969;DHT22;8085;53.472;9.794;2023-01-30T08:18:40;5.20;99.90
15969;DHT22;8085;53.472;9.794;2023-01-30T08:21:07;5.20;99.90
15969;DHT22;8085;53.472;9.794;2023-01-30T08:23:34;5.20;99.90
15969;DHT22;8085;53.472;9.794;2023-01-30T08:26:03;5.30;99.90
15969;DHT22;8085;53.472;9.794;2023-01-30T08:28:32;5.20;99.90
15969;DHT22;8085;53.472;9.794;2023-01-30T08:30:58;5.30;99.90
15969;DHT22;8085;53.472;9.794;2023-01-30T08:33:25;5.30;99.90
15969;DHT22;8085;53.472;9.794;2023-01-30T08:35:52;5.20;99.90
15969;DHT22;8085;53.472;9.794;2023-01-30T08:38:21;5.40;99.90
15969;DHT22;8085;53.472;9.794;2023-01-30T08:40:47;5.40;99.90
15969;DHT22;8085;53.472;9.794;2023-01-30T08:43:14;5.40;99.90
15969;DHT22;8085;53.472;9.794;2023-01-30T08:45:42;5.40;99.90
15969;DHT22;8085;53.472;9.794;2023-01-30T08:48:09;5.40;99.90
15969;DHT22;8085;53.472;9.794;2023-01-30T08:50:36;5.30;99.90
15969;DHT22;8085;53.472;9.794;2023-01-30T08:53:04;5.30;99.90
15969;DHT22;8085;53.472;9.794;2023-01-30T08:55:31;5.30;99.90
15969;DHT22;8085;53.472;9.794;2023-01-30T08:57:58;5.50;99.90
15969;DHT22;8085;53.472;9.794;2023-01-30T09:00:26;5.50;99.90
15969;DHT22;8085;53.472;9.794;2023-01-30T09:02:54;5.50;99.90
15969;DHT22;8085;53.472;9.794;2023-01-30T09:05:22;5.60;99.90
15969;DHT22;8085;53.472;9.794;2023-01-30T09:07:49;5.60;99.90
15969;DHT22;8085;53.472;9.794;2023-01-30T09:10:16;5.70;99.90
15969;DHT22;8085;53.472;9.794;2023-01-30T09:12:44;5.80;99.90
15969;DHT22;8085;53.472;9.794;2023-01-30T09:15:11;5.80;99.90
15969;DHT22;8085;53.472;9.794;2023-01-30T09:17:38;5.70;99.90
15969;DHT22;8085;53.472;9.794;2023-01-30T09:20:07;5.80;99.90
15969;DHT22;8085;53.472;9.794;2023-01-30T09:22:34;5.80;99.90
15969;DHT22;8085;53.472;9.794;2023-01-30T09:25:02;5.80;99.90
15969;DHT22;8085;53.472;9.794;2023-01-30T09:27:29;5.80;99.90
15969;DHT22;8085;53.472;9.794;2023-01-30T09:29:56;5.80;99.90
15969;DHT22;8085;53.472;9.794;2023-01-30T09:32:23;5.80;99.90
15969;DHT22;8085;53.472;9.794;2023-01-30T09:34:49;5.90;99.90
15969;DHT22;8085;53.472;9.794;2023-01-30T09:37:17;5.90;99.90
15969;DHT22;8085;53.472;9.794;2023-01-30T09:39:44;6.00;99.90
15969;DHT22;8085;53.472;9.794;2023-01-30T09:45:29;6.00;99.90
15969;DHT22;8085;53.472;9.794;2023-01-30T09:48:05;6.00;99.90
15969;DHT22;8085;53.472;9.794;2023-01-30T09:50:48;6.00;99.90
15969;DHT22;8085;53.472;9.794;2023-01-30T09:53:28;6.10;99.90
15969;DHT22;8085;53.472;9.794;2023-01-30T09:55:57;6.20;99.90
15969;DHT22;8085;53.472;9.794;2023-01-30T09:58:29;6.20;99.90
15969;DHT22;8085;53.472;9.794;2023-01-30T10:01:06;6.20;99.90
15969;DHT22;8085;53.472;9.794;2023-01-30T10:03:37;6.30;99.90
15969;DHT22;8085;53.472;9.794;2023-01-30T10:06:10;6.30;99.90
15969;DHT22;8085;53.472;9.794;2023-01-30T10:08:49;6.40;98.60
15969;DHT22;8085;53.472;9.794;2023-01-30T10:11:27;6.40;99.90
15969;DHT22;8085;53.472;9.794;2023-01-30T10:14:25;6.40;99.90
15969;DHT22;8085;53.472;9.794;2023-01-30T10:17:04;6.40;99.90
15969;DHT22;8085;53.472;9.794;2023-01-30T10:19:47;6.50;99.90
15969;DHT22;8085;53.472;9.794;2023-01-30T10:22:25;6.50;99.00
15969;DHT22;8085;53.472;9.794;2023-01-30T10:25:06;6.60;99.90
15969;DHT22;8085;53.472;9.794;2023-01-30T10:27:44;6.60;92.30
15969;DHT22;8085;53.472;9.794;2023-01-30T10:30:15;6.70;90.10
15969;DHT22;8085;53.472;9.794;2023-01-30T10:32:45;6.80;83.20
15969;DHT22;8085;53.472;9.794;2023-01-30T10:35:17;6.80;91.30
15969;DHT22;8085;53.472;9.794;2023-01-30T10:37:50;6.90;80.90
15969;DHT22;8085;53.472;9.794;2023-01-30T10:40:25;6.90;78.60
15969;DHT22;8085;53.472;9.794;2023-01-30T10:42:58;6.90;67.60
15969;DHT22;8085;53.472;9.794;2023-01-30T10:45:29;7.00;69.30
15969;DHT22;8085;53.472;9.794;2023-01-30T10:48:08;7.20;60.00
15969;DHT22;8085;53.472;9.794;2023-01-30T10:50:47;7.20;68.10
15969;DHT22;8085;53.472;9.794;2023-01-30T10:53:20;7.10;68.80
15969;DHT22;8085;53.472;9.794;2023-01-30T10:55:54;6.90;67.20
15969;DHT22;8085;53.472;9.794;2023-01-30T10:58:29;6.80;72.60
15969;DHT22;8085;53.472;9.794;2023-01-30T11:01:00;6.70;95.80
15969;DHT22;8085;53.472;9.794;2023-01-30T11:03:32;6.40;99.90
15969;DHT22;8085;53.472;9.794;2023-01-30T11:06:05;6.10;99.90
15969;DHT22;8085;53.472;9.794;2023-01-30T11:08:34;5.70;99.90
15969;DHT22;8085;53.472;9.794;2023-01-30T11:11:24;5.40;99.90
15969;DHT22;8085;53.472;9.794;2023-01-30T11:14:00;5.30;99.90
15969;DHT22;8085;53.472;9.794;2023-01-30T11:16:27;4.80;99.90
15969;DHT22;8085;53.472;9.794;2023-01-30T11:18:54;4.60;99.90
15969;DHT22;8085;53.472;9.794;2023-01-30T11:21:25;4.40;99.90
15969;DHT22;8085;53.472;9.794;2023-01-30T11:23:54;4.20;99.90
15969;DHT22;8085;53.472;9.794;2023-01-30T11:26:24;4.10;99.90
15969;DHT22;8085;53.472;9.794;2023-01-30T11:28:51;4.00;99.90
15969;DHT22;8085;53.472;9.794;2023-01-30T11:31:19;3.90;99.90
15969;DHT22;8085;53.472;9.794;2023-01-30T11:33:58;3.90;99.90
15969;DHT22;8085;53.472;9.794;2023-01-30T11:36:28;4.10;99.90
15969;DHT22;8085;53.472;9.794;2023-01-30T11:38:58;4.10;99.90
15969;DHT22;8085;53.472;9.794;2023-01-30T11:41:27;4.10;99.90
15969;DHT22;8085;53.472;9.794;2023-01-30T11:43:59;4.10;99.90
15969;DHT22;8085;53.472;9.794;2023-01-30T11:46:29;4.30;99.90
15969;DHT22;8085;53.472;9.794;2023-01-30T11:49:00;4.20;99.90
15969;DHT22;8085;53.472;9.794;2023-01-30T11:51:29;4.30;99.90
15969;DHT22;8085;53.472;9.794;2023-01-30T11:54:02;4.30;99.90
15969;DHT22;8085;53.472;9.794;2023-01-30T11:56:35;4.40;99.90
15969;DHT22;8085;53.472;9.794;2023-01-30T11:59:06;4.50;99.90
15969;DHT22;8085;53.472;9.794;2023-01-30T12:01:35;4.70;99.90
15969;DHT22;8085;53.472;9.794;2023-01-30T12:04:06;4.70;99.90
15969;DHT22;8085;53.472;9.794;2023-01-30T12:06:35;4.60;99.90
15969;DHT22;8085;53.472;9.794;2023-01-30T12:09:03;4.70;99.90
15969;DHT22;8085;53.472;9.794;2023-01-30T12:11:41;4.70;99.90
15969;DHT22;8085;53.472;9.794;2023-01-30T12:14:31;4.70;99.90
15969;DHT22;8085;53.472;9.794;2023-01-30T12:17:05;4.70;99.90
15969;DHT22;8085;53.472;9.794;2023-01-30T12:19:45;4.70;99.90
15969;DHT22;8085;53.472;9.794;2023-01-30T12:22:21;4.70;99.90
15969;DHT22;8085;53.472;9.794;2023-01-30T12:24:56;4.70;99.90
15969;DHT22;8085;53.472;9.794;2023-01-30T12:27:30;4.80;99.90
15969;DHT22;8085;53.472;9.794;2023-01-30T12:30:04;4.90;99.90
15969;DHT22;8085;53.472;9.794;2023-01-30T12:32:36;4.90;99.90
15969;DHT22;8085;53.472;9.794;2023-01-30T12:35:13;4.20;99.90
15969;DHT22;8085;53.472;9.794;2023-01-30T12:37:47;3.40;99.90
15969;DHT22;8085;53.472;9.794;2023-01-30T12:40:29;3.30;99.90
15969;DHT22;8085;53.472;9.794;2023-01-30T12:46:43;4.20;99.90
15969;DHT22;8085;53.472;9.794;2023-01-30T12:49:38;4.70;99.90
15969;DHT22;8085;53.472;9.794;2023-01-30T12:52:30;5.20;99.90
15969;DHT22;8085;53.472;9.794;2023-01-30T12:55:04;5.40;99.90
15969;DHT22;8085;53.472;9.794;2023-01-30T12:57:35;5.60;99.90
15969;DHT22;8085;53.472;9.794;2023-01-30T13:00:20;5.90;99.90
15969;DHT22;8085;53.472;9.794;2023-01-30T13:03:09;6.20;99.90
15969;DHT22;8085;53.472;9.794;2023-01-30T13:05:44;6.40;99.90
15969;DHT22;8085;53.472;9.794;2023-01-30T13:08:29;6.40;99.90
15969;DHT22;8085;53.472;9.794;2023-01-30T13:11:06;6.40;99.90
15969;DHT22;8085;53.472;9.794;2023-01-30T13:13:42;6.30;99.90
15969;DHT22;8085;53.472;9.794;2023-01-30T13:16:17;6.40;99.90
15969;DHT22;8085;53.472;9.794;2023-01-30T13:18:52;6.30;99.90
15969;DHT22;8085;53.472;9.794;2023-01-30T13:21:27;6.30;99.90
15969;DHT22;8085;53.472;9.794;2023-01-30T13:24:07;6.30;99.90
15969;DHT22;8085;53.472;9.794;2023-01-30T13:26:40;6.30;99.90
15969;DHT22;8085;53.472;9.794;2023-01-30T13:29:12;6.30;99.90
15969;DHT22;8085;53.472;9.794;2023-01-30T13:31:46;6.30;99.90
15969;DHT22;8085;53.472;9.794;2023-01-30T13:34:21;6.40;99.90
15969;DHT22;8085;53.472;9.794;2023-01-30T13:36:53;6.40;99.90
15969;DHT22;8085;53.472;9.794;2023-01-30T13:39:31;6.40;99.90
15969;DHT22;8085;53.472;9.794;2023-01-30T13:41:59;6.40;99.90
15969;DHT22;8085;53.472;9.794;2023-01-30T13:44:29;6.50;99.90
15969;DHT22;8085;53.472;9.794;2023-01-30T13:47:00;6.60;99.50
15969;DHT22;8085;53.472;9.794;2023-01-30T13:49:38;6.60;93.90
15969;DHT22;8085;53.472;9.794;2023-01-30T13:52:16;6.60;94.90
15969;DHT22;8085;53.472;9.794;2023-01-30T13:54:55;6.60;98.40
15969;DHT22;8085;53.472;9.794;2023-01-30T13:57:28;6.70;95.70
15969;DHT22;8085;53.472;9.794;2023-01-30T14:00:15;6.60;99.20
15969;DHT22;8085;53.472;9.794;2023-01-30T14:03:13;6.60;97.20
15969;DHT22;8085;53.472;9.794;2023-01-30T14:06:07;6.50;99.90
15969;DHT22;8085;53.472;9.794;2023-01-30T14:08:39;6.40;99.90
15969;DHT22;8085;53.472;9.794;2023-01-30T14:11:34;6.20;99.90
15969;DHT22;8085;53.472;9.794;2023-01-30T14:14:05;6.20;99.90
15969;DHT22;8085;53.472;9.794;2023-01-30T14:16:43;6.40;99.90
15969;DHT22;8085;53.472;9.794;2023-01-30T14:19:33;6.30;99.90
15969;DHT22;8085;53.472;9.794;2023-01-30T14:34:46;6.60;99.90
15969;DHT22;8085;53.472;9.794;2023-01-30T14:37:49;6.70;99.90
15969;DHT22;8085;53.472;9.794;2023-01-30T14:40:37;6.70;99.90
15969;DHT22;8085;53.472;9.794;2023-01-30T14:48:52;6.70;99.90
15969;DHT22;8085;53.472;9.794;2023-01-30T14:51:23;6.70;99.90
15969;DHT22;8085;53.472;9.794;2023-01-30T14:53:54;6.90;91.90
15969;DHT22;8085;53.472;9.794;2023-01-30T14:56:38;6.70;99.90
15969;DHT22;8085;53.472;9.794;2023-01-30T14:59:09;6.80;93.20
15969;DHT22;8085;53.472;9.794;2023-01-30T15:02:00;6.80;96.10
15969;DHT22;8085;53.472;9.794;2023-01-30T15:04:31;6.60;99.90
15969;DHT22;8085;53.472;9.794;2023-01-30T15:07:03;6.70;96.80
15969;DHT22;8085;53.472;9.794;2023-01-30T15:09:34;6.70;94.80
15969;DHT22;8085;53.472;9.794;2023-01-30T15:12:19;6.80;94.40
15969;DHT22;8085;53.472;9.794;2023-01-30T15:14:56;6.70;95.20
15969;DHT22;8085;53.472;9.794;2023-01-30T15:17:31;6.70;99.90
15969;DHT22;8085;53.472;9.794;2023-01-30T15:20:15;6.60;99.90
15969;DHT22;8085;53.472;9.794;2023-01-30T15:23:07;6.70;98.30
15969;DHT22;8085;53.472;9.794;2023-01-30T15:25:48;6.70;96.90
15969;DHT22;8085;53.472;9.794;2023-01-30T15:28:26;6.60;94.50
15969;DHT22;8085;53.472;9.794;2023-01-30T15:31:07;6.40;97.30
15969;DHT22;8085;53.472;9.794;2023-01-30T15:33:42;6.40;90.50
15969;DHT22;8085;53.472;9.794;2023-01-30T15:36:23;6.30;91.80
15969;DHT22;8085;53.472;9.794;2023-01-30T15:38:58;6.30;93.90
15969;DHT22;8085;53.472;9.794;2023-01-30T15:41:29;6.30;88.90
15969;DHT22;8085;53.472;9.794;2023-01-30T15:44:23;6.30;93.40
15969;DHT22;8085;53.472;9.794;2023-01-30T15:47:02;6.30;91.90
15969;DHT22;8085;53.472;9.794;2023-01-30T15:49:53;6.20;95.20
15969;DHT22;8085;53.472;9.794;2023-01-30T15:52:24;6.10;95.80
15969;DHT22;8085;53.472;9.794;2023-01-30T15:54:58;6.20;95.60
15969;DHT22;8085;53.472;9.794;2023-01-30T15:57:32;6.10;99.10
15969;DHT22;8085;53.472;9.794;2023-01-30T16:00:00;6.10;99.90
15969;DHT22;8085;53.472;9.794;2023-01-30T16:02:30;6.10;99.90
15969;DHT22;8085;53.472;9.794;2023-01-30T16:05:14;6.10;99.90
15969;DHT22;8085;53.472;9.794;2023-01-30T16:07:42;6.10;99.90
15969;DHT22;8085;53.472;9.794;2023-01-30T16:10:12;6.20;99.40
15969;DHT22;8085;53.472;9.794;2023-01-30T16:12:41;6.00;99.90
15969;DHT22;8085;53.472;9.794;2023-01-30T16:15:24;6.10;99.80
15969;DHT22;8085;53.472;9.794;2023-01-30T16:17:57;5.90;99.90
15969;DHT22;8085;53.472;9.794;2023-01-30T16:20:25;6.00;99.90
15969;DHT22;8085;53.472;9.794;2023-01-30T16:22:52;6.00;99.90
15969;DHT22;8085;53.472;9.794;2023-01-30T16:25:21;6.00;99.90
15969;DHT22;8085;53.472;9.794;2023-01-30T16:27:50;5.90;99.90
15969;DHT22;8085;53.472;9.794;2023-01-30T16:30:23;5.90;99.90
15969;DHT22;8085;53.472;9.794;2023-01-30T16:32:52;5.90;99.90
15969;DHT22;8085;53.472;9.794;2023-01-30T16:35:30;5.90;99.90
15969;DHT22;8085;53.472;9.794;2023-01-30T16:38:00;5.90;99.90
15969;DHT22;8085;53.472;9.794;2023-01-30T16:40:29;5.90;99.00
15969;DHT22;8085;53.472;9.794;2023-01-30T16:42:59;5.90;99.90
15969;DHT22;8085;53.472;9.794;2023-01-30T16:48:44;5.90;97.70
15969;DHT22;8085;53.472;9.794;2023-01-30T16:51:16;5.90;97.30
15969;DHT22;8085;53.472;9.794;2023-01-30T16:53:51;5.80;97.10
15969;DHT22;8085;53.472;9.794;2023-01-30T16:56:19;5.80;97.50
15969;DHT22;8085;53.472;9.794;2023-01-30T16:58:51;5.70;99.90